Van Horn, Texas
Current Conditions -  °F | °C
As of 10:51 PM on Friday 28 Nov 2014 (Local Time) from KGDP Reporting Station
Clear Clear  
Wind Chill: 50°   Ceiling: Unl
Heat Index: 50°   Visibility: 10mi
Dew Point: 16°   Wind: 18mph
Humidity: 26%   Direction: 250°WSW
Pressure: 30.12"   Gusts: NA
Location:  31.04°N, 104.83°W
Report Text: KGDP 290451Z AUTO 25016KT 10SM CLR 10/M09 A3012 RMK AO2 SLP161 T01001089
Loading
Personal Weather Stations






























Interactive Weather Map New forecast layout! Learn more

10-Day Weather Forecast

Advertisements
Track Severe Weather on mobile